FAUP

Pierre Van Ryneveld Airport

Upington, South Africa
METAR FAUP 190300Z 34005KT 9999 FEW050 24/13 Q1013 NOSIG
Observed Flight Rules
Jan-19 @ 03:00 UTC (46 minutes ago) Visual Flight Rules
Wind Visibility Clouds
340° at 5 knots 10,000+ meters
  • Few at 5,000' AGL
Temperatures Readings
Current 24°C / 75°F
Dewpoint 13°C / 55°F
Humidity 50%
Altimeter 29.91" Hg
Pressure 1013 hPa
Elevation 836
METAR FAUP 190300Z 34005KT 9999 FEW050 24/13 Q1013 NOSIG
Observed Flight Rules
Jan-19 @ 03:00 UTC
(46 minutes ago)
VFR
Wind Visibility
340° at 5 knots 10,000+ meters
Clouds
  • Few at 5,000' AGL
Temperature Dewpoint
24°C / 75°F 13°C / 55°F
Humidity Altimeter Pressure
50% 29.91" Hg 1013 hPa